Time;durP1;ratioP1;P1;durP2;ratioP2;P2;SDS_P1;SDS_P2;PMS_P1;PMS_P2;Temp;Humidity;BMP_temperature;BMP_pressure;BME280_temperature;BME280_humidity;BME280_pressure;Samples;Min_cycle;Max_cycle;Signal;HPM_P1;HPM_P2
2023/09/08 00:01:20;;;;;;;0.00;0.00;;;;;;;17.76;100.00;96865.50;5108280;27;20561;-79
2023/09/08 00:04:07;;;;;;;0.00;0.00;;;;;;;17.82;100.00;96858.97;5112032;27;20039;-79
2023/09/08 00:06:53;;;;;;;0.00;0.00;;;;;;;17.77;100.00;96848.19;5110031;27;20045;-79
2023/09/08 00:09:39;;;;;;;0.00;0.00;;;;;;;17.73;100.00;96856.03;5109212;27;20085;-79
2023/09/08 00:12:24;;;;;;;0.00;0.00;;;;;;;17.64;100.00;96854.22;5110035;27;20043;-80
2023/09/08 00:15:11;;;;;;;0.00;0.00;;;;;;;17.45;100.00;96852.22;5108541;27;20449;-79
2023/09/08 00:17:56;;;;;;;0.00;0.00;;;;;;;17.39;100.00;96852.53;5110471;27;20042;-79
2023/09/08 00:20:42;;;;;;;0.00;0.00;;;;;;;17.32;100.00;96846.63;5112100;27;20074;-80
2023/09/08 00:23:28;;;;;;;0.00;0.00;;;;;;;17.14;100.00;96851.63;5111075;27;20561;-79
2023/09/08 00:26:14;;;;;;;0.00;0.00;;;;;;;17.18;100.00;96851.84;5110460;27;20046;-79
2023/09/08 00:29:01;;;;;;;0.00;0.00;;;;;;;17.15;100.00;96849.72;5109804;27;20784;-79
2023/09/08 00:31:47;;;;;;;0.00;0.00;;;;;;;17.08;100.00;96833.81;5094789;27;20054;-80
2023/09/08 00:34:33;;;;;;;0.00;0.00;;;;;;;17.10;100.00;96857.84;5111353;27;20606;-80
2023/09/08 00:37:18;;;;;;;0.00;0.00;;;;;;;17.10;100.00;96853.25;5109592;27;20585;-80
2023/09/08 00:40:06;;;;;;;0.00;0.00;;;;;;;17.12;100.00;96855.69;5109692;27;20043;-80
2023/09/08 00:42:52;;;;;;;0.00;0.00;;;;;;;16.95;100.00;96847.94;5110359;27;20045;-80
2023/09/08 00:45:41;;;;;;;0.00;0.00;;;;;;;16.90;100.00;96850.69;5103465;27;20039;-80
2023/09/08 00:48:27;;;;;;;0.00;0.00;;;;;;;16.85;100.00;96848.81;5089965;27;20035;-79
2023/09/08 00:51:13;;;;;;;0.00;0.00;;;;;;;16.84;100.00;96849.91;5111027;28;20367;-79
2023/09/08 00:53:59;;;;;;;0.00;0.00;;;;;;;16.83;100.00;96850.19;5096333;28;20140;-79
2023/09/08 00:56:46;;;;;;;0.00;0.00;;;;;;;16.73;100.00;96851.06;5097007;28;20112;-79
2023/09/08 00:59:34;;;;;;;0.00;0.00;;;;;;;16.65;100.00;96849.72;5096425;28;20526;-79
2023/09/08 01:02:21;;;;;;;0.00;0.00;;;;;;;16.63;100.00;96853.75;5104477;28;20046;-79
2023/09/08 01:05:07;;;;;;;0.00;0.00;;;;;;;16.59;100.00;96860.81;5097105;28;20035;-79
2023/09/08 01:07:53;;;;;;;0.00;0.00;;;;;;;16.64;100.00;96858.88;5097534;28;20074;-79
2023/09/08 01:10:41;;;;;;;0.00;0.00;;;;;;;16.56;100.00;96853.25;5108588;28;20047;-79
2023/09/08 01:13:27;;;;;;;0.00;0.00;;;;;;;16.57;100.00;96854.84;5094689;28;20046;-80
2023/09/08 01:16:13;;;;;;;0.00;0.00;;;;;;;16.44;100.00;96856.28;5109071;28;20589;-80
2023/09/08 01:18:59;;;;;;;0.00;0.00;;;;;;;16.47;100.00;96855.72;5094200;28;20044;-80
2023/09/08 01:22:10;;;;;;;0.00;0.00;;;;;;;16.26;100.00;96856.88;5093380;28;20035;-80
2023/09/08 01:25:15;;;;;;;0.00;0.00;;;;;;;16.29;100.00;96846.34;5110456;28;20118;-80
2023/09/08 01:28:02;;;;;;;0.00;0.00;;;;;;;16.24;100.00;96837.44;5106919;28;20140;-80
2023/09/08 01:30:48;;;;;;;0.05;0.05;;;;;;;16.26;100.00;96840.66;5096569;28;20050;-80
2023/09/08 01:33:35;;;;;;;0.00;0.00;;;;;;;16.27;100.00;96839.59;5109651;28;20051;-80
2023/09/08 01:36:21;;;;;;;0.00;0.00;;;;;;;16.34;100.00;96840.09;5111737;28;20428;-79
2023/09/08 01:39:07;;;;;;;0.00;0.00;;;;;;;16.26;100.00;96832.56;5110148;27;20513;-79
2023/09/08 01:41:53;;;;;;;0.00;0.00;;;;;;;16.27;100.00;96837.72;5114204;27;20623;-79
2023/09/08 01:44:39;;;;;;;0.00;0.00;;;;;;;16.24;100.00;96837.44;5100705;27;20043;-80
2023/09/08 01:47:25;;;;;;;0.00;0.00;;;;;;;16.10;100.00;96839.91;5111597;27;20043;-80
2023/09/08 01:50:11;;;;;;;0.03;0.03;;;;;;;15.99;100.00;96833.72;5096040;27;20047;-80
2023/09/08 01:52:57;;;;;;;0.08;0.08;;;;;;;15.85;100.00;96843.47;5112833;27;20115;-80
2023/09/08 01:55:43;;;;;;;0.00;0.00;;;;;;;15.78;100.00;96845.63;5113884;27;20051;-80
2023/09/08 01:58:30;;;;;;;0.00;0.00;;;;;;;15.75;100.00;96855.09;5098736;27;20119;-80
2023/09/08 02:01:16;;;;;;;0.00;0.00;;;;;;;15.69;100.00;96845.38;5098450;27;20649;-79
2023/09/08 02:04:02;;;;;;;0.00;0.00;;;;;;;15.66;100.00;96850.53;5111882;27;20194;-80
2023/09/08 02:06:48;;;;;;;0.10;0.10;;;;;;;15.60;100.00;96836.19;5097961;27;20397;-79
2023/09/08 02:09:35;;;;;;;0.00;0.00;;;;;;;15.60;100.00;96845.09;5097349;27;20422;-80
2023/09/08 02:12:21;;;;;;;0.00;0.00;;;;;;;15.62;100.00;96844.84;5098891;27;20059;-80
2023/09/08 02:15:08;;;;;;;0.00;0.00;;;;;;;15.67;100.00;96839.47;5089670;27;20118;-79
2023/09/08 02:17:56;;;;;;;0.00;0.00;;;;;;;15.80;100.00;96844.31;5097097;27;20104;-79
2023/09/08 02:20:42;;;;;;;0.00;0.00;;;;;;;16.03;100.00;96828.59;5100645;27;20042;-79
2023/09/08 02:23:28;;;;;;;0.00;0.00;;;;;;;16.21;100.00;96841.50;5090605;27;20032;-80
2023/09/08 02:26:14;;;;;;;0.00;0.00;;;;;;;16.23;100.00;96835.81;5091196;27;20123;-80
2023/09/08 02:29:00;;;;;;;0.00;0.00;;;;;;;16.22;100.00;96832.31;5110763;27;20043;-79
2023/09/08 02:31:47;;;;;;;0.00;0.00;;;;;;;16.25;100.00;96836.34;5111025;27;20042;-79
2023/09/08 02:34:37;;;;;;;0.00;0.00;;;;;;;16.25;100.00;96837.16;5099624;27;20693;-79
2023/09/08 02:37:24;;;;;;;0.10;0.10;;;;;;;16.21;100.00;96829.91;5090951;27;20063;-80
2023/09/08 02:40:10;;;;;;;0.00;0.00;;;;;;;16.22;100.00;96828.81;5098345;27;20031;-79
2023/09/08 02:42:57;;;;;;;0.00;0.00;;;;;;;16.23;100.00;96833.94;5099417;27;20136;-79
2023/09/08 02:45:43;;;;;;;0.00;0.00;;;;;;;16.22;100.00;96832.31;5092895;27;20053;-80
2023/09/08 02:48:29;;;;;;;0.00;0.00;;;;;;;16.34;100.00;96830.13;5093969;27;20494;-79
2023/09/08 02:51:15;;;;;;;0.00;0.00;;;;;;;16.39;100.00;96832.78;5091202;27;20042;-79
2023/09/08 02:54:01;;;;;;;0.00;0.00;;;;;;;16.48;100.00;96824.91;5112673;27;20031;-80
2023/09/08 02:56:49;;;;;;;0.00;0.00;;;;;;;16.52;100.00;96830.59;5110853;27;20074;-79
2023/09/08 02:59:38;;;;;;;0.10;0.10;;;;;;;16.49;100.00;96829.22;5106778;27;20039;-79
2023/09/08 03:02:25;;;;;;;0.05;0.05;;;;;;;16.48;100.00;96824.91;5096828;27;20035;-79
2023/09/08 03:05:11;;;;;;;0.08;0.08;;;;;;;16.44;100.00;96824.69;5098228;27;20257;-79
2023/09/08 03:07:57;;;;;;;0.00;0.00;;;;;;;16.33;100.00;96816.88;5108447;27;20035;-79
2023/09/08 03:10:43;;;;;;;0.00;0.00;;;;;;;16.35;100.00;96826.34;5111729;27;20546;-79
2023/09/08 03:13:29;;;;;;;0.00;0.00;;;;;;;16.44;100.00;96827.38;5094042;27;20042;-79
2023/09/08 03:16:14;;;;;;;0.00;0.00;;;;;;;16.55;100.00;96813.81;5092500;27;20039;-79
2023/09/08 03:19:00;;;;;;;0.00;0.00;;;;;;;16.56;100.00;96813.53;5112043;27;20043;-79
2023/09/08 03:21:46;;;;;;;0.10;0.10;;;;;;;16.63;100.00;96816.75;5111809;27;20049;-79
2023/09/08 03:24:32;;;;;;;0.10;0.10;;;;;;;16.58;100.00;96819.50;5108324;27;20058;-79
2023/09/08 03:27:18;;;;;;;0.08;0.08;;;;;;;16.57;100.00;96820.56;5093049;27;20588;-79
2023/09/08 03:30:05;;;;;;;0.05;0.05;;;;;;;16.53;100.00;96810.59;5110893;27;20158;-79
2023/09/08 03:32:50;;;;;;;0.08;0.08;;;;;;;16.51;100.00;96815.47;5095282;27;20142;-79
2023/09/08 03:35:36;;;;;;;0.10;0.10;;;;;;;16.45;100.00;96809.28;5099022;27;20035;-79
2023/09/08 03:38:23;;;;;;;0.00;0.00;;;;;;;16.32;100.00;96812.56;5096766;27;20047;-79
2023/09/08 03:41:10;;;;;;;0.00;0.00;;;;;;;16.16;100.00;96795.63;5097743;27;20177;-79
2023/09/08 03:43:56;;;;;;;0.00;0.00;;;;;;;16.02;100.00;96791.88;5090301;27;20225;-79
2023/09/08 03:46:42;;;;;;;0.00;0.00;;;;;;;15.93;100.00;96807.03;5112140;27;20043;-79
2023/09/08 03:49:28;;;;;;;0.00;0.00;;;;;;;15.90;100.00;96796.78;5105393;27;20358;-79
2023/09/08 03:52:14;;;;;;;0.00;0.00;;;;;;;15.85;100.00;96784.09;5097540;27;20047;-79
2023/09/08 03:55:01;;;;;;;0.00;0.00;;;;;;;15.90;100.00;96781.41;5098259;27;20040;-80
2023/09/08 03:57:47;;;;;;;0.10;0.10;;;;;;;15.98;100.00;96791.63;5079865;27;20126;-78
2023/09/08 04:00:34;;;;;;;0.00;0.00;;;;;;;15.88;100.00;96794.38;5090189;27;20207;-77
2023/09/08 04:03:20;;;;;;;0.00;0.00;;;;;;;15.73;100.00;96791.72;5106298;27;20034;-78
2023/09/08 04:06:06;;;;;;;0.08;0.08;;;;;;;15.72;100.00;96782.81;5090888;27;20058;-78
2023/09/08 04:08:52;;;;;;;0.00;0.00;;;;;;;15.64;100.00;96794.16;5093323;27;20114;-79
2023/09/08 04:11:39;;;;;;;0.00;0.00;;;;;;;15.50;100.00;96788.47;5096618;27;20524;-79
2023/09/08 04:14:27;;;;;;;0.00;0.00;;;;;;;15.41;100.00;96800.06;5110254;27;20048;-79
2023/09/08 04:17:12;;;;;;;0.10;0.10;;;;;;;15.34;100.00;96792.25;5114589;27;21014;-79
2023/09/08 04:19:58;;;;;;;0.00;0.00;;;;;;;15.31;100.00;96796.28;5097352;27;20039;-79
2023/09/08 04:22:44;;;;;;;0.03;0.03;;;;;;;15.25;100.00;96792.00;5111155;27;20059;-79
2023/09/08 04:25:31;;;;;;;0.08;0.08;;;;;;;15.26;100.00;96792.81;5094365;27;20042;-78
2023/09/08 04:28:17;;;;;;;0.00;0.00;;;;;;;15.24;100.00;96795.75;5096369;27;20352;-78
2023/09/08 04:31:03;;;;;;;0.00;0.00;;;;;;;15.24;100.00;96801.16;5098486;27;20126;-78
2023/09/08 04:33:49;;;;;;;0.00;0.00;;;;;;;15.23;100.00;96804.13;5112428;27;20043;-78
2023/09/08 04:36:35;;;;;;;0.00;0.00;;;;;;;15.19;100.00;96806.56;5111817;27;20038;-78
2023/09/08 04:39:21;;;;;;;0.00;0.00;;;;;;;15.05;100.00;96813.53;5099647;27;20067;-78
2023/09/08 04:42:07;;;;;;;0.00;0.00;;;;;;;14.96;100.00;96807.06;5093293;27;20965;-78
2023/09/08 04:44:53;;;;;;;0.00;0.00;;;;;;;14.83;100.00;96800.31;5098246;27;20035;-78
2023/09/08 04:47:39;;;;;;;0.10;0.10;;;;;;;14.73;100.00;96801.09;5098133;27;20096;-78
2023/09/08 04:50:25;;;;;;;0.00;0.00;;;;;;;14.64;100.00;96799.19;5106869;27;20074;-78
2023/09/08 04:53:11;;;;;;;0.00;0.00;;;;;;;14.70;100.00;96803.50;5110637;28;20126;-78
2023/09/08 04:55:56;;;;;;;0.00;0.00;;;;;;;14.65;100.00;96804.31;5099114;28;20050;-78
2023/09/08 04:58:43;;;;;;;0.00;0.00;;;;;;;14.59;100.00;96810.75;5095293;28;20132;-78
2023/09/08 05:01:32;;;;;;;0.05;0.05;;;;;;;14.56;100.00;96807.81;5097224;28;20047;-78
2023/09/08 05:04:19;;;;;;;0.10;0.10;;;;;;;14.57;100.00;96807.53;5097539;28;20038;-78
2023/09/08 05:07:05;;;;;;;0.00;0.00;;;;;;;14.58;100.00;96813.72;5090140;28;20035;-79
2023/09/08 05:09:52;;;;;;;0.00;0.00;;;;;;;14.54;100.00;96810.72;5099035;28;20126;-79
2023/09/08 05:12:38;;;;;;;0.00;0.00;;;;;;;14.59;100.00;96816.16;5094986;28;20134;-80
2023/09/08 05:15:25;;;;;;;0.10;0.10;;;;;;;14.65;100.00;96816.97;5097925;27;20122;-80
2023/09/08 05:18:12;;;;;;;0.00;0.00;;;;;;;14.71;100.00;96819.44;5100430;27;20503;-80
2023/09/08 05:20:58;;;;;;;0.00;0.00;;;;;;;14.67;100.00;96837.19;5103087;27;20512;-80
2023/09/08 05:23:44;;;;;;;0.08;0.08;;;;;;;14.70;100.00;96827.75;5114900;27;20105;-80
2023/09/08 05:26:31;;;;;;;0.08;0.08;;;;;;;14.68;100.00;96830.72;5096318;27;20068;-80
2023/09/08 05:29:17;;;;;;;0.00;0.00;;;;;;;14.73;100.00;96835.31;5102723;27;20662;-80
2023/09/08 05:32:04;;;;;;;0.00;0.00;;;;;;;14.74;100.00;96834.22;5102211;27;20761;-80
2023/09/08 05:34:50;;;;;;;0.10;0.10;;;;;;;14.76;100.00;96838.28;5103385;27;20035;-81
2023/09/08 05:37:36;;;;;;;0.00;0.00;;;;;;;14.68;100.00;96840.69;5099563;27;20614;-80
2023/09/08 05:40:24;;;;;;;0.10;0.10;;;;;;;14.68;100.00;96836.09;5102093;27;20697;-80
2023/09/08 05:43:10;;;;;;;0.10;0.10;;;;;;;14.74;100.00;96843.13;5081860;27;20528;-80
2023/09/08 05:45:56;;;;;;;0.00;0.00;;;;;;;14.72;100.00;96845.28;5103149;27;20786;-80
2023/09/08 05:48:42;;;;;;;0.10;0.10;;;;;;;14.74;100.00;96834.22;5100076;27;20039;-80
2023/09/08 05:51:28;;;;;;;0.10;0.10;;;;;;;14.86;100.00;96837.47;5102546;27;20162;-80
2023/09/08 05:54:15;;;;;;;0.03;0.03;;;;;;;14.82;100.00;96838.28;5100678;27;20544;-78
2023/09/08 05:57:02;;;;;;;0.00;0.00;;;;;;;14.89;100.00;96839.66;5102357;27;20081;-79
2023/09/08 05:59:49;;;;;;;0.13;0.00;;;;;;;15.02;100.00;96846.44;5113268;27;20038;-78
2023/09/08 06:02:35;;;;;;;0.10;0.10;;;;;;;15.08;100.00;96839.94;5111084;27;20432;-80
2023/09/08 06:05:21;;;;;;;0.10;0.10;;;;;;;15.23;100.00;96847.25;5115942;27;20558;-80
2023/09/08 06:08:07;;;;;;;0.10;0.10;;;;;;;15.36;100.00;96848.63;5100671;27;20035;-78
2023/09/08 06:10:54;;;;;;;0.10;0.10;;;;;;;15.47;100.00;96848.31;5097728;27;20043;-80
2023/09/08 06:13:42;;;;;;;0.00;0.00;;;;;;;15.59;100.00;96848.06;5098463;27;20071;-78
2023/09/08 06:16:28;;;;;;;0.03;0.03;;;;;;;15.70;100.00;96840.78;5113562;27;20073;-79
2023/09/08 06:19:14;;;;;;;0.10;0.10;;;;;;;15.82;100.00;96846.72;5100558;27;20048;-80
2023/09/08 06:22:00;;;;;;;0.10;0.10;;;;;;;15.98;100.00;96851.00;5113086;27;20035;-80
2023/09/08 06:24:46;;;;;;;0.00;0.00;;;;;;;16.14;100.00;96847.19;5100262;27;20751;-80
2023/09/08 06:27:32;;;;;;;0.03;0.03;;;;;;;16.35;100.00;96856.03;5108270;27;20104;-79
2023/09/08 06:30:18;;;;;;;0.10;0.10;;;;;;;16.53;100.00;96853.81;5083841;27;20621;-80
2023/09/08 06:33:04;;;;;;;0.10;0.10;;;;;;;16.60;100.00;96855.13;5097939;27;20043;-81
2023/09/08 06:35:50;;;;;;;0.10;0.10;;;;;;;16.67;100.00;96850.25;5114589;27;20042;-80
2023/09/08 06:38:36;;;;;;;0.00;0.00;;;;;;;16.80;100.00;96853.44;5099783;27;20130;-80
2023/09/08 06:41:23;;;;;;;0.00;0.00;;;;;;;16.91;100.00;96847.72;5115216;27;20070;-79
2023/09/08 06:44:10;;;;;;;0.00;0.00;;;;;;;17.07;100.00;96851.13;5097825;27;20506;-80
2023/09/08 06:46:56;;;;;;;0.00;0.00;;;;;;;17.18;100.00;96852.66;5092734;27;20122;-81
2023/09/08 06:49:42;;;;;;;0.10;0.10;;;;;;;17.33;100.00;96850.94;5101957;27;20123;-81
2023/09/08 06:52:28;;;;;;;0.00;0.00;;;;;;;17.41;100.00;96851.16;5111750;27;20051;-79
2023/09/08 06:55:16;;;;;;;0.08;0.08;;;;;;;17.51;100.00;96847.56;5100933;27;20039;-80
2023/09/08 06:58:02;;;;;;;0.00;0.00;;;;;;;17.57;100.00;96832.09;5101949;27;20065;-81
2023/09/08 07:00:50;;;;;;;0.00;0.00;;;;;;;17.62;100.00;96846.38;5096337;27;20274;-81
2023/09/08 07:03:36;;;;;;;0.00;0.00;;;;;;;17.68;100.00;96841.75;5104442;27;20039;-80
2023/09/08 07:06:24;;;;;;;0.00;0.00;;;;;;;17.78;100.00;96841.66;5102584;27;20606;-79
2023/09/08 07:09:11;;;;;;;0.00;0.00;;;;;;;17.89;100.00;96835.06;5092375;27;20355;-82
2023/09/08 07:11:57;;;;;;;0.08;0.08;;;;;;;17.98;100.00;96833.38;5099206;27;20047;-80
2023/09/08 07:14:43;;;;;;;0.00;0.00;;;;;;;18.13;100.00;96842.41;5111284;27;20374;-80
2023/09/08 07:17:29;;;;;;;0.10;0.00;;;;;;;18.21;100.00;96839.06;5099142;27;20172;-80
2023/09/08 07:20:15;;;;;;;0.00;0.00;;;;;;;18.32;100.00;96843.28;5099107;27;20045;-82
2023/09/08 07:23:00;;;;;;;0.10;0.10;;;;;;;18.40;100.00;96834.50;5098763;27;20043;-81
2023/09/08 07:25:47;;;;;;;0.10;0.10;;;;;;;18.53;100.00;96836.53;5099441;27;20801;-81
2023/09/08 07:28:34;;;;;;;0.10;0.10;;;;;;;18.65;100.00;96834.22;5096884;27;20582;-79
2023/09/08 07:31:23;;;;;;;0.10;0.10;;;;;;;18.77;100.00;96831.09;5100485;27;20088;-80
2023/09/08 07:34:11;;;;;;;0.03;0.03;;;;;;;18.85;100.00;96838.59;5093041;27;20031;-80
2023/09/08 07:36:57;;;;;;;0.10;0.10;;;;;;;18.92;100.00;96828.19;5100190;27;20087;-81
2023/09/08 07:39:43;;;;;;;0.00;0.00;;;;;;;19.06;100.00;96841.00;5113022;27;20043;-82
2023/09/08 07:42:29;;;;;;;0.00;0.00;;;;;;;19.15;100.00;96840.06;5109989;27;20039;-82
2023/09/08 07:45:18;;;;;;;0.10;0.10;;;;;;;19.28;100.00;96843.09;5098702;27;20428;-81
2023/09/08 07:48:04;;;;;;;0.10;0.10;;;;;;;19.32;100.00;96844.16;5111139;27;20035;-82
2023/09/08 07:50:50;;;;;;;0.00;0.00;;;;;;;19.41;100.00;96842.38;5111877;27;20092;-81
2023/09/08 07:53:36;;;;;;;0.00;0.00;;;;;;;19.53;100.00;96842.69;5110452;27;20050;-81
2023/09/08 07:56:22;;;;;;;0.00;0.00;;;;;;;19.60;100.00;96854.03;5079357;27;20047;-81
2023/09/08 07:59:08;;;;;;;0.00;0.00;;;;;;;19.71;100.00;96839.19;5098705;27;20481;-81
2023/09/08 08:01:53;;;;;;;0.10;0.10;;;;;;;19.79;100.00;96828.75;5110096;27;20074;-80
2023/09/08 08:04:39;;;;;;;0.00;0.00;;;;;;;19.88;100.00;96835.09;5109531;27;20642;-81
2023/09/08 08:07:25;;;;;;;0.00;0.00;;;;;;;19.97;100.00;96842.25;5108482;27;20036;-82
2023/09/08 08:10:12;;;;;;;0.00;0.00;;;;;;;20.06;100.00;96836.94;5112544;27;20596;-79
2023/09/08 08:12:58;;;;;;;0.00;0.00;;;;;;;20.14;100.00;96841.66;5089940;27;20043;-80
2023/09/08 08:15:47;;;;;;;0.10;0.10;;;;;;;20.25;100.00;96832.22;5112435;27;20043;-81
2023/09/08 08:18:32;;;;;;;0.00;0.00;;;;;;;20.34;100.00;96839.69;5106650;27;20040;-81
2023/09/08 08:21:18;;;;;;;0.10;0.10;;;;;;;20.48;100.00;96843.25;5111406;27;20043;-81
2023/09/08 08:24:05;;;;;;;0.00;0.00;;;;;;;20.59;100.00;96839.19;5105632;27;20046;-81
2023/09/08 08:26:53;;;;;;;0.00;0.00;;;;;;;20.67;100.00;96835.75;5091297;27;20047;-81
2023/09/08 08:29:42;;;;;;;0.00;0.00;;;;;;;20.70;100.00;96831.63;5109717;27;20043;-79
2023/09/08 08:32:27;;;;;;;0.00;0.00;;;;;;;20.71;100.00;96835.97;5105460;27;20027;-80
2023/09/08 08:35:13;;;;;;;0.08;0.08;;;;;;;20.89;100.00;96840.47;5111453;27;20043;-81
2023/09/08 08:38:00;;;;;;;0.10;0.10;;;;;;;21.01;100.00;96837.19;5106951;27;20052;-80
2023/09/08 08:40:46;;;;;;;0.00;0.00;;;;;;;21.10;100.00;96849.00;5107243;27;20141;-81
2023/09/08 08:43:32;;;;;;;0.00;0.00;;;;;;;21.33;100.00;96849.88;5108916;27;20524;-81
2023/09/08 08:46:20;;;;;;;0.05;0.05;;;;;;;21.42;100.00;96843.38;5112226;27;20036;-80
2023/09/08 08:49:07;;;;;;;0.00;0.00;;;;;;;21.55;100.00;96841.69;5106660;27;20046;-80
2023/09/08 08:51:53;;;;;;;0.00;0.00;;;;;;;21.63;100.00;96853.75;5088452;27;20158;-79
2023/09/08 08:54:42;;;;;;;0.00;0.00;;;;;;;21.59;100.00;96847.31;5111543;27;20043;-82
2023/09/08 08:57:28;;;;;;;0.05;0.05;;;;;;;21.61;100.00;96848.63;5079905;27;20573;-79
2023/09/08 09:00:15;;;;;;;0.00;0.00;;;;;;;21.64;100.00;96845.28;5108117;28;20039;-80
2023/09/08 09:03:03;;;;;;;0.00;0.00;;;;;;;21.71;100.00;96844.84;5105074;28;20104;-80
2023/09/08 09:05:49;;;;;;;0.00;0.00;;;;;;;21.83;100.00;96847.00;5096641;28;20023;-82
2023/09/08 09:08:38;;;;;;;0.00;0.00;;;;;;;21.87;100.00;96835.19;5106796;28;20039;-82
2023/09/08 09:11:24;;;;;;;0.10;0.10;;;;;;;21.76;100.00;96841.19;5110967;28;20928;-81
2023/09/08 09:14:10;;;;;;;0.10;0.10;;;;;;;21.85;100.00;96836.59;5106349;27;20174;-84
2023/09/08 09:16:56;;;;;;;0.00;0.00;;;;;;;21.86;100.00;96849.09;5109815;28;20039;-80
2023/09/08 09:19:42;;;;;;;0.00;0.00;;;;;;;21.92;100.00;96840.47;5108477;28;20573;-83
2023/09/08 09:22:39;;;;;;;0.03;0.03;;;;;;;22.18;100.00;96845.31;5105645;28;20035;-82
2023/09/08 09:25:27;;;;;;;0.03;0.03;;;;;;;22.26;100.00;96836.38;5115869;27;20043;-80
2023/09/08 09:28:13;;;;;;;0.00;0.00;;;;;;;22.34;100.00;96838.31;5106414;28;20077;-82
2023/09/08 09:30:59;;;;;;;0.00;0.00;;;;;;;22.35;100.00;96847.31;5110221;28;20066;-82
2023/09/08 09:33:45;;;;;;;0.10;0.10;;;;;;;22.42;100.00;96843.00;5085278;28;20447;-81
2023/09/08 09:36:31;;;;;;;0.10;0.10;;;;;;;22.56;100.00;96845.59;5110914;28;20042;-80
2023/09/08 09:39:21;;;;;;;0.00;0.00;;;;;;;22.53;100.00;96833.41;5107815;28;20127;-79
2023/09/08 09:42:06;;;;;;;0.00;0.00;;;;;;;22.65;100.00;96835.53;5077821;28;20039;-81
2023/09/08 09:44:52;;;;;;;0.10;0.10;;;;;;;22.67;100.00;96843.41;5112817;28;20080;-80
2023/09/08 09:47:38;;;;;;;0.00;0.00;;;;;;;22.83;100.00;96847.28;5109864;28;20042;-79
2023/09/08 09:50:43;;;;;;;0.00;0.00;;;;;;;23.02;100.00;96836.09;5090694;28;20138;-81
2023/09/08 09:53:29;;;;;;;0.03;0.03;;;;;;;23.03;100.00;96834.97;5106198;28;20054;-83
2023/09/08 09:56:16;;;;;;;0.00;0.00;;;;;;;23.05;100.00;96832.75;5079856;27;20039;-84
2023/09/08 09:59:04;;;;;;;0.35;0.22;;;;;;;23.10;100.00;96839.97;5106526;28;20533;-83
2023/09/08 10:01:50;;;;;;;0.00;0.00;;;;;;;23.34;100.00;96832.09;5111416;27;20470;-80
2023/09/08 10:04:36;;;;;;;0.10;0.10;;;;;;;23.44;100.00;96833.72;5112617;27;20468;-81
2023/09/08 10:07:22;;;;;;;0.10;0.10;;;;;;;23.56;100.00;96829.19;5111195;27;20052;-81
2023/09/08 10:10:09;;;;;;;0.10;0.10;;;;;;;23.79;100.00;96839.97;5127837;27;20028;-80
2023/09/08 10:13:01;;;;;;;0.05;0.05;;;;;;;24.10;100.00;96835.06;5123031;27;20299;-80
2023/09/08 10:15:49;;;;;;;0.10;0.10;;;;;;;24.27;100.00;96831.47;5113170;27;20039;-81
2023/09/08 10:18:37;;;;;;;0.10;0.10;;;;;;;24.30;99.36;96827.28;5111427;27;20490;-83
2023/09/08 10:21:25;;;;;;;0.10;0.10;;;;;;;24.42;97.72;96822.75;5113850;27;20039;-81
2023/09/08 10:24:13;;;;;;;0.10;0.10;;;;;;;24.80;96.08;96826.56;5110863;27;20044;-82
2023/09/08 10:27:20;;;;;;;0.10;0.10;;;;;;;25.17;95.39;96833.94;5112583;27;20118;-84
2023/09/08 10:30:07;;;;;;;0.10;0.10;;;;;;;25.16;92.93;96829.59;5113130;27;20114;-83
2023/09/08 10:32:54;;;;;;;0.10;0.10;;;;;;;25.11;89.94;96831.72;5111808;27;20115;-80
2023/09/08 10:35:42;;;;;;;0.10;0.10;;;;;;;25.95;87.26;96825.03;5064252;27;20105;-82
2023/09/08 10:38:31;;;;;;;0.10;0.10;;;;;;;26.85;84.45;96826.06;5106458;27;20589;-81
2023/09/08 10:41:17;;;;;;;0.10;0.10;;;;;;;28.34;77.47;96813.03;5113344;27;20512;-81
2023/09/08 10:44:07;;;;;;;0.10;0.10;;;;;;;29.62;69.98;96815.94;5109544;27;20125;-83
2023/09/08 10:46:53;;;;;;;0.10;0.10;;;;;;;31.01;60.00;96810.09;5108987;27;20305;-83
2023/09/08 10:49:40;;;;;;;0.10;0.10;;;;;;;31.02;56.80;96811.69;5094213;27;20043;-83
2023/09/08 10:52:27;;;;;;;0.10;0.10;;;;;;;31.69;55.79;96808.25;5109765;27;20043;-82
2023/09/08 10:55:13;;;;;;;0.10;0.10;;;;;;;32.93;50.12;96800.34;5096381;27;20039;-81
2023/09/08 10:57:58;;;;;;;0.10;0.10;;;;;;;33.01;43.38;96811.47;5094010;27;21047;-83
2023/09/08 11:00:47;;;;;;;0.10;0.10;;;;;;;33.93;40.37;96808.34;5109764;27;20095;-84
2023/09/08 11:03:37;;;;;;;0.10;0.10;;;;;;;35.16;39.61;96801.25;5108985;27;20721;-84
2023/09/08 11:06:23;;;;;;;0.10;0.10;;;;;;;37.18;35.17;96800.41;5113938;27;20039;-82
2023/09/08 11:09:09;;;;;;;0.10;0.10;;;;;;;37.30;35.96;96807.44;5110157;27;20485;-83
2023/09/08 11:11:55;;;;;;;0.10;0.10;;;;;;;36.31;32.65;96800.75;5110013;27;20240;-83
2023/09/08 11:14:42;;;;;;;0.10;0.10;;;;;;;36.97;32.41;96807.00;5107852;27;20107;-85
2023/09/08 11:17:28;;;;;;;0.10;0.10;;;;;;;37.44;30.42;96803.75;5106623;27;20960;-83
2023/09/08 11:20:15;;;;;;;0.10;0.10;;;;;;;37.49;30.24;96806.84;5112015;27;20546;-84
2023/09/08 11:23:01;;;;;;;0.10;0.10;;;;;;;37.25;30.12;96805.91;5105356;27;20430;-84
2023/09/08 11:25:49;;;;;;;0.10;0.10;;;;;;;38.16;29.94;96810.75;5109106;27;20104;-84
2023/09/08 11:28:36;;;;;;;0.10;0.10;;;;;;;39.34;26.31;96808.03;5108619;27;20086;-82
2023/09/08 11:31:21;;;;;;;0.10;0.10;;;;;;;38.01;27.44;96816.97;5111790;27;20440;-83
2023/09/08 11:34:07;;;;;;;0.10;0.10;;;;;;;39.36;27.55;96814.00;5109677;27;20054;-83
2023/09/08 11:36:53;;;;;;;0.00;0.00;;;;;;;38.49;26.30;96815.88;5113019;27;20082;-83
2023/09/08 11:39:40;;;;;;;0.10;0.10;;;;;;;38.10;26.58;96820.81;5112551;27;20035;-84
2023/09/08 11:42:27;;;;;;;0.00;0.00;;;;;;;38.28;27.31;96811.41;5108698;27;20705;-81
2023/09/08 11:45:17;;;;;;;0.10;0.10;;;;;;;38.44;27.79;96806.75;5110033;27;20670;-83
2023/09/08 11:48:04;;;;;;;0.10;0.10;;;;;;;39.38;27.22;96808.75;5105318;27;20094;-82
2023/09/08 11:50:53;;;;;;;0.10;0.10;;;;;;;40.43;24.56;96795.69;5107920;27;20099;-83
2023/09/08 11:53:41;;;;;;;0.00;0.00;;;;;;;39.92;25.37;96800.84;5104869;27;20142;-84
2023/09/08 11:56:27;;;;;;;0.10;0.10;;;;;;;37.88;27.21;96803.56;5066869;27;20161;-82
2023/09/08 11:59:13;;;;;;;0.10;0.10;;;;;;;38.83;26.22;96810.13;5109518;27;20039;-82
2023/09/08 12:01:59;;;;;;;0.10;0.10;;;;;;;38.80;25.94;96805.41;5105950;27;20192;-83
2023/09/08 12:04:45;;;;;;;0.00;0.00;;;;;;;40.70;24.14;96806.66;5106861;27;20050;-81
2023/09/08 12:07:31;;;;;;;0.10;0.10;;;;;;;41.03;24.94;96807.44;5107875;27;20061;-82
2023/09/08 12:10:18;;;;;;;0.10;0.10;;;;;;;41.32;24.17;96801.06;5111690;27;20126;-83
2023/09/08 12:13:04;;;;;;;0.10;0.10;;;;;;;41.35;23.48;96809.41;5106206;27;20043;-84
2023/09/08 12:15:50;;;;;;;0.10;0.10;;;;;;;39.67;25.38;96811.78;5108094;27;20039;-82
2023/09/08 12:18:39;;;;;;;0.10;0.10;;;;;;;39.44;24.84;96809.84;5107085;27;20669;-83
2023/09/08 12:21:25;;;;;;;0.10;0.10;;;;;;;39.40;25.82;96801.53;5111972;27;20107;-83
2023/09/08 12:24:13;;;;;;;0.10;0.10;;;;;;;40.21;24.83;96798.22;5107334;27;20596;-83
2023/09/08 12:27:02;;;;;;;0.00;0.00;;;;;;;41.86;23.53;96798.31;5109632;27;20035;-83
2023/09/08 12:30:04;;;;;;;0.10;0.10;;;;;;;40.96;23.37;96796.41;5093438;27;20830;-84
2023/09/08 12:32:50;;;;;;;0.10;0.10;;;;;;;40.69;23.50;96791.06;5091239;27;20035;-83
2023/09/08 12:35:36;;;;;;;0.10;0.10;;;;;;;42.04;23.24;96785.78;5110195;27;20372;-84
2023/09/08 12:38:23;;;;;;;0.10;0.10;;;;;;;42.13;23.12;96789.50;5105721;27;20055;-83
2023/09/08 12:41:09;;;;;;;0.10;0.10;;;;;;;42.00;23.35;96786.66;5097882;28;20130;-82
2023/09/08 12:43:54;;;;;;;0.10;0.10;;;;;;;42.43;21.38;96784.53;5105947;27;20043;-84
2023/09/08 12:46:40;;;;;;;0.10;0.10;;;;;;;40.88;22.82;96781.00;5110397;27;20053;-83
2023/09/08 12:49:26;;;;;;;0.10;0.10;;;;;;;42.39;22.26;96783.84;5109124;27;20383;-83
2023/09/08 12:52:12;;;;;;;0.10;0.10;;;;;;;41.85;23.09;96779.09;5106974;27;20079;-84
2023/09/08 12:54:59;;;;;;;0.10;0.10;;;;;;;42.83;21.30;96779.19;5111823;27;20140;-84
2023/09/08 12:57:46;;;;;;;0.10;0.10;;;;;;;42.75;21.42;96775.06;5098226;27;20058;-84